Time;durP1;ratioP1;P1;durP2;ratioP2;P2;SDS_P1;SDS_P2;PMS_P1;PMS_P2;Temp;Humidity;BMP_temperature;BMP_pressure;BME280_temperature;BME280_humidity;BME280_pressure;Samples;Min_cycle;Max_cycle;Signal;HPM_P1;HPM_P2
2023/12/06 00:01:41;;;;;;;29.17;20.52;;;15.40;70.20;;;;;;4187759;28;20408;-62
2023/12/06 00:04:23;;;;;;;30.50;20.58;;;15.50;70.00;;;;;;4187568;28;20064;-62
2023/12/06 00:07:05;;;;;;;28.17;19.35;;;15.60;69.50;;;;;;4187202;28;20051;-62
2023/12/06 00:09:46;;;;;;;29.25;20.92;;;15.70;69.10;;;;;;4187611;28;20059;-62
2023/12/06 00:12:27;;;;;;;27.47;20.87;;;15.70;69.10;;;;;;4185885;28;20511;-63
2023/12/06 00:15:09;;;;;;;26.80;19.90;;;15.80;69.00;;;;;;4190749;28;20261;-63
2023/12/06 00:17:51;;;;;;;26.67;19.92;;;15.90;68.70;;;;;;4185551;28;20395;-63
2023/12/06 00:20:33;;;;;;;26.77;19.92;;;16.00;68.30;;;;;;4187246;28;20055;-62
2023/12/06 00:23:15;;;;;;;28.63;20.15;;;16.00;67.90;;;;;;4182557;28;20075;-62
2023/12/06 00:25:55;;;;;;;26.08;19.67;;;16.00;68.10;;;;;;4165673;28;20052;-62
2023/12/06 00:28:36;;;;;;;26.83;18.85;;;16.00;67.90;;;;;;4185067;28;20053;-61
2023/12/06 00:31:18;;;;;;;24.00;18.88;;;16.10;67.80;;;;;;4189017;28;20055;-61
2023/12/06 00:33:59;;;;;;;25.70;18.90;;;16.00;67.90;;;;;;4180161;28;20115;-53
2023/12/06 00:36:42;;;;;;;24.17;17.75;;;16.00;68.10;;;;;;4189102;28;20051;-52
2023/12/06 00:39:24;;;;;;;25.10;18.67;;;16.10;67.90;;;;;;4188454;28;20060;-50
2023/12/06 00:42:05;;;;;;;24.98;18.17;;;16.00;67.70;;;;;;4175781;28;20055;-52
2023/12/06 00:44:46;;;;;;;25.10;18.70;;;16.00;67.60;;;;;;4153580;28;20477;-51
2023/12/06 00:47:28;;;;;;;25.73;18.25;;;16.00;67.90;;;;;;4194943;28;20388;-53
2023/12/06 00:50:10;;;;;;;23.90;17.85;;;15.90;68.00;;;;;;4184405;28;20052;-55
2023/12/06 00:52:52;;;;;;;25.45;17.58;;;15.90;68.10;;;;;;4184077;28;20129;-51
2023/12/06 00:55:33;;;;;;;21.92;17.45;;;15.80;68.20;;;;;;4174603;28;20060;-55
2023/12/06 00:58:14;;;;;;;24.40;18.13;;;15.70;68.50;;;;;;4186435;28;20052;-55
2023/12/06 01:00:56;;;;;;;27.77;18.83;;;15.70;68.80;;;;;;4184977;28;20071;-61
2023/12/06 01:03:38;;;;;;;21.73;18.35;;;15.60;68.90;;;;;;4180148;28;20063;-55
2023/12/06 01:06:19;;;;;;;25.15;18.48;;;15.60;69.50;;;;;;4195739;28;20450;-54
2023/12/06 01:09:03;;;;;;;23.25;18.45;;;15.60;69.60;;;;;;4186460;28;20113;-55
2023/12/06 01:11:44;;;;;;;27.25;19.58;;;15.70;69.60;;;;;;4188193;28;20471;-56
2023/12/06 01:14:25;;;;;;;23.75;18.15;;;15.70;69.30;;;;;;4187595;28;20051;-55
2023/12/06 01:17:06;;;;;;;24.33;17.83;;;15.80;70.20;;;;;;4188568;28;20052;-54
2023/12/06 01:19:49;;;;;;;27.15;18.48;;;15.80;69.10;;;;;;4178989;28;20052;-50
2023/12/06 01:22:30;;;;;;;25.23;18.38;;;15.90;68.80;;;;;;4188529;28;20202;-55
2023/12/06 01:25:13;;;;;;;27.25;19.50;;;15.80;68.60;;;;;;4187867;28;20068;-55
2023/12/06 01:27:55;;;;;;;24.25;18.83;;;15.80;68.60;;;;;;4175647;28;20044;-54
2023/12/06 01:30:36;;;;;;;27.17;18.80;;;15.70;68.80;;;;;;4175601;28;20178;-54
2023/12/06 01:33:16;;;;;;;25.70;19.05;;;15.60;68.90;;;;;;4199571;28;20083;-53
2023/12/06 01:35:58;;;;;;;24.67;17.30;;;15.60;69.40;;;;;;4188942;28;20056;-54
2023/12/06 01:38:39;;;;;;;25.85;18.52;;;15.60;69.80;;;;;;4188618;28;20182;-54
2023/12/06 01:41:21;;;;;;;24.48;18.58;;;15.70;69.90;;;;;;4188551;28;20153;-54
2023/12/06 01:44:02;;;;;;;25.48;19.13;;;15.80;69.60;;;;;;4187893;28;20055;-54
2023/12/06 01:46:43;;;;;;;23.30;18.02;;;15.90;69.20;;;;;;4174832;28;20056;-51
2023/12/06 01:49:25;;;;;;;25.92;18.08;;;16.00;68.70;;;;;;4174069;28;20094;-52
2023/12/06 01:52:07;;;;;;;24.98;18.70;;;16.00;68.50;;;;;;4188757;28;20052;-52
2023/12/06 01:54:48;;;;;;;25.77;18.00;;;16.00;68.50;;;;;;4171351;28;20060;-52
2023/12/06 01:57:31;;;;;;;;;;;16.10;68.30;;;;;;4183887;28;20122;-54
2023/12/06 02:00:16;;;;;;;23.55;16.75;;;16.10;68.10;;;;;;4185982;28;19931;-51
2023/12/06 02:02:58;;;;;;;25.73;19.58;;;16.10;68.10;;;;;;4186160;28;20082;-50
2023/12/06 02:05:42;;;;;;;25.77;18.85;;;16.20;67.90;;;;;;4184833;28;20182;-53
2023/12/06 02:08:23;;;;;;;24.58;17.42;;;16.20;67.90;;;;;;4179644;28;20067;-52
2023/12/06 02:11:05;;;;;;;27.23;19.05;;;16.20;67.80;;;;;;4194170;28;20052;-52
2023/12/06 02:13:47;;;;;;;26.00;18.95;;;16.20;67.90;;;;;;4171548;28;20137;-53
2023/12/06 02:16:32;;;;;;;27.70;18.52;;;16.30;67.90;;;;;;4169150;28;20506;-50
2023/12/06 02:19:17;;;;;;;24.80;18.83;;;16.30;67.50;;;;;;4172921;28;20060;-52
2023/12/06 02:22:03;;;;;;;25.13;18.80;;;16.30;67.10;;;;;;4162495;28;20646;-53
2023/12/06 02:24:47;;;;;;;24.83;18.75;;;16.40;67.10;;;;;;4187745;28;20056;-55
2023/12/06 02:27:29;;;;;;;24.20;18.85;;;16.30;67.00;;;;;;4171357;28;20101;-52
2023/12/06 02:30:12;;;;;;;24.17;18.80;;;16.30;67.40;;;;;;4172970;28;20428;-52
2023/12/06 02:32:53;;;;;;;22.30;17.30;;;16.40;67.40;;;;;;4187269;28;20607;-53
2023/12/06 02:35:42;;;;;;;24.60;17.45;;;16.40;67.20;;;;;;4185710;28;20051;-61
2023/12/06 02:38:24;;;;;;;24.58;17.55;;;16.40;67.10;;;;;;4178239;28;20056;-62
2023/12/06 02:41:07;;;;;;;21.67;17.00;;;16.40;67.20;;;;;;4170693;28;20052;-61
2023/12/06 02:43:49;;;;;;;21.20;16.20;;;16.40;67.00;;;;;;4173391;28;20132;-61
2023/12/06 02:46:35;;;;;;;24.33;16.98;;;16.50;66.90;;;;;;4186282;28;20062;-59
2023/12/06 02:49:17;;;;;;;21.10;16.05;;;16.40;67.00;;;;;;4171199;28;20600;-60
2023/12/06 02:51:58;;;;;;;;;;;16.40;67.00;;;;;;4186706;28;20194;-60
2023/12/06 02:54:39;;;;;;;26.83;16.48;;;16.40;67.20;;;;;;4182897;28;20062;-61
2023/12/06 02:57:20;;;;;;;23.35;15.75;;;16.30;67.50;;;;;;4189266;28;20060;-60
2023/12/06 03:00:05;;;;;;;21.35;16.05;;;16.20;67.80;;;;;;4168725;28;20063;-60
2023/12/06 03:02:48;;;;;;;21.58;16.42;;;16.10;68.00;;;;;;4171526;28;20105;-60
2023/12/06 03:05:30;;;;;;;19.98;15.43;;;16.10;68.40;;;;;;4184886;28;20066;-60
2023/12/06 03:08:14;;;;;;;18.88;14.95;;;16.20;68.20;;;;;;4182403;28;20055;-59
2023/12/06 03:10:57;;;;;;;18.90;14.93;;;16.20;67.90;;;;;;4167568;28;20052;-62
2023/12/06 03:13:39;;;;;;;15.60;13.18;;;16.30;67.50;;;;;;4172456;28;20056;-61
2023/12/06 03:16:22;;;;;;;16.83;13.25;;;16.30;67.80;;;;;;4166395;28;20203;-61
2023/12/06 03:19:05;;;;;;;17.60;13.20;;;16.30;67.70;;;;;;4167570;28;20071;-61
2023/12/06 03:21:45;;;;;;;16.67;13.23;;;16.30;67.70;;;;;;4167870;28;20515;-61
2023/12/06 03:24:26;;;;;;;14.70;12.13;;;16.30;67.60;;;;;;4144688;28;20053;-61
2023/12/06 03:27:08;;;;;;;13.85;10.65;;;16.40;67.50;;;;;;4174573;28;20044;-61
2023/12/06 03:29:49;;;;;;;14.35;10.80;;;16.40;68.10;;;;;;4170144;28;20056;-61
2023/12/06 03:32:31;;;;;;;11.73;10.52;;;16.50;67.00;;;;;;4179341;28;20059;-61
2023/12/06 03:35:12;;;;;;;11.38;10.02;;;16.50;66.70;;;;;;4190458;28;20422;-61
2023/12/06 03:37:54;;;;;;;12.07;9.90;;;16.50;66.70;;;;;;4186729;28;20059;-60
2023/12/06 03:40:35;;;;;;;10.15;8.35;;;16.40;67.10;;;;;;4171636;28;20105;-61
2023/12/06 03:43:17;;;;;;;9.63;8.27;;;16.40;67.60;;;;;;4169558;28;20250;-60
2023/12/06 03:45:58;;;;;;;10.25;8.63;;;16.40;67.60;;;;;;4168482;28;20056;-61
2023/12/06 03:48:41;;;;;;;9.98;8.70;;;16.40;67.50;;;;;;4184047;28;20051;-61
2023/12/06 03:51:22;;;;;;;10.10;8.40;;;16.40;67.30;;;;;;4172738;28;20052;-61
2023/12/06 03:54:04;;;;;;;9.27;8.35;;;16.30;67.40;;;;;;4168736;28;20504;-61
2023/12/06 03:56:45;;;;;;;9.73;8.15;;;16.20;67.70;;;;;;4170817;28;20263;-61
2023/12/06 03:59:27;;;;;;;9.27;8.30;;;16.10;67.80;;;;;;4180555;28;20055;-60
2023/12/06 04:02:08;;;;;;;11.13;7.95;;;16.00;68.30;;;;;;4173796;28;20515;-61
2023/12/06 04:04:50;;;;;;;9.82;8.52;;;15.90;68.50;;;;;;4182086;28;20449;-61
2023/12/06 04:07:31;;;;;;;8.13;7.20;;;15.90;68.90;;;;;;4172638;28;20056;-61
2023/12/06 04:10:12;;;;;;;9.10;7.60;;;15.80;69.10;;;;;;4185904;28;20059;-61
2023/12/06 04:12:54;;;;;;;9.35;8.07;;;15.80;69.60;;;;;;4168135;28;20237;-60
2023/12/06 04:15:35;;;;;;;8.50;7.65;;;15.80;69.90;;;;;;4185816;28;20506;-60
2023/12/06 04:18:16;;;;;;;8.13;7.32;;;15.90;69.90;;;;;;4170346;28;20056;-52
2023/12/06 04:20:59;;;;;;;8.20;7.35;;;16.00;69.50;;;;;;4184860;28;20557;-52
2023/12/06 04:23:40;;;;;;;11.35;7.63;;;16.10;70.00;;;;;;4155423;28;20125;-49
2023/12/06 04:26:21;;;;;;;8.73;7.57;;;16.20;68.70;;;;;;4167337;28;20059;-53
2023/12/06 04:29:02;;;;;;;9.00;8.10;;;16.20;68.50;;;;;;4160885;28;20091;-57
2023/12/06 04:31:43;;;;;;;9.40;7.80;;;16.20;68.50;;;;;;4168029;28;20133;-51
2023/12/06 04:34:24;;;;;;;8.65;7.35;;;16.30;69.30;;;;;;4165602;28;20077;-54
2023/12/06 04:37:06;;;;;;;8.77;7.73;;;16.30;68.10;;;;;;4153114;28;20099;-54
2023/12/06 04:39:47;;;;;;;10.07;7.78;;;16.30;68.10;;;;;;4169317;28;20099;-54
2023/12/06 04:42:28;;;;;;;8.95;7.57;;;16.20;68.10;;;;;;4167221;28;20056;-50
2023/12/06 04:45:10;;;;;;;;;;;16.20;68.30;;;;;;4162287;28;20187;-52
2023/12/06 04:47:51;;;;;;;8.65;7.75;;;16.10;68.70;;;;;;4168281;28;20434;-60
2023/12/06 04:50:32;;;;;;;8.20;7.03;;;16.00;69.30;;;;;;4166300;28;20055;-60
2023/12/06 04:53:14;;;;;;;7.03;6.43;;;16.00;69.40;;;;;;4168639;28;20201;-62
2023/12/06 04:55:55;;;;;;;7.55;6.85;;;16.00;69.40;;;;;;4186296;28;20437;-60
2023/12/06 04:58:36;;;;;;;10.88;6.90;;;16.10;69.00;;;;;;4189217;28;20051;-60
2023/12/06 05:01:18;;;;;;;6.70;5.68;;;16.10;69.00;;;;;;4173407;28;20133;-60
2023/12/06 05:03:59;;;;;;;7.57;6.70;;;16.20;68.80;;;;;;4174041;28;20068;-60
2023/12/06 05:06:40;;;;;;;8.10;6.95;;;16.20;69.40;;;;;;4184123;28;20057;-61
2023/12/06 05:09:22;;;;;;;7.50;6.57;;;16.20;68.60;;;;;;4188850;28;20090;-61
2023/12/06 05:12:03;;;;;;;7.50;6.18;;;16.20;68.70;;;;;;4170851;28;20322;-61
2023/12/06 05:14:44;;;;;;;7.55;6.53;;;16.20;69.50;;;;;;4171687;28;20105;-60
2023/12/06 05:17:25;;;;;;;7.20;6.47;;;16.40;68.50;;;;;;4169846;28;20098;-60
2023/12/06 05:20:07;;;;;;;7.00;6.30;;;16.40;68.20;;;;;;4171582;28;20490;-59
2023/12/06 05:22:48;;;;;;;9.82;6.57;;;16.40;67.80;;;;;;4171241;28;20052;-59
2023/12/06 05:25:32;;;;;;;7.60;6.13;;;16.50;67.80;;;;;;4172764;28;20055;-59
2023/12/06 05:28:13;;;;;;;6.57;6.05;;;16.50;67.80;;;;;;4180527;28;20146;-61
2023/12/06 05:30:54;;;;;;;8.90;6.32;;;16.50;67.70;;;;;;4170161;28;20056;-59
2023/12/06 05:33:35;;;;;;;8.73;5.88;;;16.60;67.50;;;;;;4170035;28;20063;-59
2023/12/06 05:36:16;;;;;;;7.10;6.07;;;16.60;67.20;;;;;;4170932;28;20060;-59
2023/12/06 05:38:58;;;;;;;7.43;6.70;;;16.60;67.00;;;;;;4159972;28;20530;-60
2023/12/06 05:41:40;;;;;;;7.97;6.80;;;16.60;67.20;;;;;;4180254;28;20064;-60
2023/12/06 05:44:21;;;;;;;7.50;6.70;;;16.60;67.10;;;;;;4170383;28;20179;-59
2023/12/06 05:47:02;;;;;;;6.47;5.85;;;16.60;67.10;;;;;;4184190;28;20050;-59
2023/12/06 05:49:43;;;;;;;6.97;6.38;;;16.50;67.30;;;;;;4178074;28;20538;-60
2023/12/06 05:52:25;;;;;;;8.30;6.65;;;16.40;67.40;;;;;;4184430;28;20043;-60
2023/12/06 05:55:06;;;;;;;7.10;6.20;;;16.50;67.80;;;;;;4173881;28;20507;-59
2023/12/06 05:57:48;;;;;;;11.85;7.00;;;16.40;67.80;;;;;;4171841;28;20514;-60
2023/12/06 06:00:30;;;;;;;7.55;6.50;;;16.30;67.90;;;;;;4173097;28;20114;-60
2023/12/06 06:03:11;;;;;;;9.18;6.72;;;16.40;68.20;;;;;;4188619;28;20106;-59
2023/12/06 06:05:52;;;;;;;7.10;6.35;;;16.30;68.30;;;;;;4188521;28;20051;-52
2023/12/06 06:08:33;;;;;;;7.82;6.03;;;16.40;68.20;;;;;;4188241;28;20117;-51
2023/12/06 06:11:14;;;;;;;7.65;6.60;;;16.40;68.00;;;;;;4188287;28;20388;-53
2023/12/06 06:13:57;;;;;;;9.68;7.05;;;16.50;68.90;;;;;;4188561;28;20051;-51
2023/12/06 06:16:37;;;;;;;7.35;6.70;;;16.40;67.80;;;;;;4188276;28;20427;-49
2023/12/06 06:19:19;;;;;;;7.28;6.28;;;16.40;67.90;;;;;;4182632;28;20051;-50
2023/12/06 06:22:00;;;;;;;7.38;6.63;;;16.30;68.10;;;;;;4187628;28;20046;-50
2023/12/06 06:24:41;;;;;;;7.25;6.45;;;16.30;68.40;;;;;;4187592;28;20059;-51
2023/12/06 06:27:22;;;;;;;6.22;5.70;;;16.20;68.70;;;;;;4187779;28;20051;-60
2023/12/06 06:30:06;;;;;;;8.57;6.55;;;16.20;68.80;;;;;;4186982;28;20071;-60
2023/12/06 06:32:47;;;;;;;8.15;7.32;;;16.20;68.80;;;;;;4188091;28;20055;-59
2023/12/06 06:35:28;;;;;;;10.35;7.00;;;16.10;69.20;;;;;;4171561;28;20052;-60
2023/12/06 06:38:10;;;;;;;9.40;7.90;;;16.20;70.20;;;;;;4187130;28;20134;-59
2023/12/06 06:40:51;;;;;;;7.72;6.93;;;16.20;69.10;;;;;;4172086;28;20055;-59
2023/12/06 06:43:32;;;;;;;10.93;7.95;;;16.40;68.70;;;;;;4171072;28;20450;-60
2023/12/06 06:46:14;;;;;;;8.57;6.50;;;16.40;68.60;;;;;;4175639;28;20063;-58
2023/12/06 06:48:56;;;;;;;8.27;6.75;;;16.40;68.40;;;;;;4172762;28;20442;-57
2023/12/06 06:51:38;;;;;;;8.02;6.95;;;16.50;69.30;;;;;;4188122;28;20116;-60
2023/12/06 06:54:19;;;;;;;7.88;6.90;;;16.50;68.50;;;;;;4178889;28;20052;-60
2023/12/06 06:57:00;;;;;;;7.53;6.82;;;16.50;68.60;;;;;;4173382;28;20155;-60
2023/12/06 06:59:41;;;;;;;7.50;6.75;;;16.60;68.60;;;;;;4180222;28;20071;-60
2023/12/06 07:02:23;;;;;;;7.43;6.72;;;16.50;68.40;;;;;;4187492;28;20055;-59
2023/12/06 07:05:07;;;;;;;9.80;7.32;;;16.40;68.30;;;;;;4198796;28;20495;-60
2023/12/06 07:07:47;;;;;;;;;;;16.40;68.70;;;;;;4172853;28;20056;-60
2023/12/06 07:10:28;;;;;;;7.78;6.75;;;16.30;69.20;;;;;;4178463;28;19927;-60
2023/12/06 07:13:09;;;;;;;7.45;6.60;;;16.40;69.30;;;;;;4184834;28;20118;-61
2023/12/06 07:15:50;;;;;;;8.05;7.13;;;16.40;68.90;;;;;;4185679;28;20053;-60
2023/12/06 07:18:33;;;;;;;8.07;7.03;;;16.50;68.60;;;;;;4188103;28;20498;-60
2023/12/06 07:21:14;;;;;;;7.38;6.65;;;16.50;68.60;;;;;;4185308;28;20495;-59
2023/12/06 07:23:55;;;;;;;6.17;5.57;;;16.60;69.00;;;;;;4187246;28;20055;-60
2023/12/06 07:26:36;;;;;;;10.23;7.00;;;16.60;68.80;;;;;;4187314;28;20290;-60
2023/12/06 07:29:17;;;;;;;6.57;5.95;;;16.70;68.60;;;;;;4171872;28;20416;-59
2023/12/06 07:31:58;;;;;;;7.80;7.00;;;16.70;68.30;;;;;;4168080;28;20567;-59
2023/12/06 07:34:41;;;;;;;6.85;6.18;;;16.70;68.40;;;;;;4155725;28;20057;-59
2023/12/06 07:37:26;;;;;;;6.65;5.95;;;16.70;68.70;;;;;;4170256;28;20138;-60
2023/12/06 07:40:11;;;;;;;9.00;6.80;;;16.70;69.60;;;;;;4169439;28;20412;-59
2023/12/06 07:42:52;;;;;;;7.88;6.32;;;16.60;68.40;;;;;;4170933;28;20074;-59
2023/12/06 07:45:33;;;;;;;7.72;6.90;;;16.60;68.50;;;;;;4171341;28;20183;-60
2023/12/06 07:48:13;;;;;;;6.90;6.30;;;16.60;68.60;;;;;;4158888;28;20424;-60
2023/12/06 07:50:57;;;;;;;6.28;5.70;;;16.60;68.50;;;;;;4180549;28;20056;-60
2023/12/06 07:53:38;;;;;;;6.57;5.93;;;16.50;68.10;;;;;;4174292;28;20186;-60
2023/12/06 07:56:19;;;;;;;6.30;5.70;;;16.40;68.10;;;;;;4203141;28;21288;-60
2023/12/06 07:59:02;;;;;;;6.68;5.68;;;16.40;68.50;;;;;;4158354;28;20523;-60
2023/12/06 08:01:43;;;;;;;7.47;6.03;;;16.30;68.60;;;;;;4170015;28;20056;-59
2023/12/06 08:04:25;;;;;;;6.47;5.65;;;16.40;68.60;;;;;;4169022;28;20052;-60
2023/12/06 08:07:07;;;;;;;5.97;5.40;;;16.40;68.30;;;;;;4162950;28;20114;-60
2023/12/06 08:09:49;;;;;;;5.43;4.90;;;16.50;68.10;;;;;;4193664;28;20120;-59
2023/12/06 08:12:31;;;;;;;5.50;4.93;;;16.50;68.10;;;;;;4203173;28;20390;-60
2023/12/06 08:15:13;;;;;;;8.85;5.15;;;16.60;67.70;;;;;;4203332;28;20063;-59
2023/12/06 08:17:54;;;;;;;5.07;4.68;;;16.60;67.20;;;;;;4203857;28;20055;-60
2023/12/06 08:20:36;;;;;;;4.95;4.47;;;16.70;67.20;;;;;;4204159;28;20572;-60
2023/12/06 08:23:20;;;;;;;;;;;16.70;67.30;;;;;;4204493;28;20178;-60
2023/12/06 08:26:01;;;;;;;6.15;5.57;;;16.60;67.50;;;;;;4169421;28;19931;-60
2023/12/06 08:28:42;;;;;;;7.53;4.60;;;16.60;67.80;;;;;;4171957;28;20132;-60
2023/12/06 08:31:23;;;;;;;5.40;4.88;;;16.50;68.40;;;;;;4189212;28;20048;-52
2023/12/06 08:34:04;;;;;;;5.47;4.85;;;16.50;68.50;;;;;;4189564;28;20071;-50
2023/12/06 08:36:46;;;;;;;7.25;5.18;;;16.50;68.80;;;;;;4180461;28;20052;-49
2023/12/06 08:39:28;;;;;;;6.47;5.07;;;16.50;68.50;;;;;;4189460;28;20054;-52
2023/12/06 08:42:09;;;;;;;8.02;4.82;;;16.50;68.60;;;;;;4189959;28;20290;-52
2023/12/06 08:44:50;;;;;;;6.63;5.00;;;16.50;68.70;;;;;;4173147;28;20059;-51
2023/12/06 08:47:32;;;;;;;6.07;5.57;;;16.40;69.30;;;;;;4172158;28;20407;-53
2023/12/06 08:50:14;;;;;;;7.70;5.20;;;16.30;69.70;;;;;;4162563;28;20064;-50
2023/12/06 08:52:56;;;;;;;5.55;4.97;;;16.30;69.70;;;;;;4162608;28;20396;-53
2023/12/06 08:55:38;;;;;;;5.97;5.00;;;16.30;69.70;;;;;;4185706;28;20125;-49
2023/12/06 08:58:20;;;;;;;5.25;4.85;;;16.30;69.60;;;;;;4185702;28;20056;-51
2023/12/06 09:01:01;;;;;;;7.25;5.22;;;16.30;69.30;;;;;;4182220;28;20044;-52
2023/12/06 09:03:41;;;;;;;5.90;5.00;;;16.30;69.60;;;;;;4200569;28;20395;-53
2023/12/06 09:06:23;;;;;;;6.13;5.53;;;16.20;69.60;;;;;;4201255;28;20059;-53
2023/12/06 09:09:05;;;;;;;5.90;5.30;;;16.30;69.50;;;;;;4176628;28;20113;-49
2023/12/06 09:11:47;;;;;;;6.32;4.88;;;16.30;69.60;;;;;;4177022;28;20052;-49
2023/12/06 09:14:30;;;;;;;4.95;4.55;;;16.20;69.40;;;;;;4166680;28;20060;-52
2023/12/06 09:17:11;;;;;;;6.38;5.20;;;16.20;69.70;;;;;;4188109;28;20051;-48
2023/12/06 09:19:53;;;;;;;5.68;4.93;;;16.10;69.90;;;;;;4200685;28;20551;-52
2023/12/06 09:22:34;;;;;;;5.90;5.32;;;16.20;70.50;;;;;;4205422;28;20096;-52
2023/12/06 09:25:15;;;;;;;5.50;5.00;;;16.20;69.40;;;;;;4206193;28;20059;-50
2023/12/06 09:27:58;;;;;;;5.78;5.20;;;16.20;69.00;;;;;;4205617;28;20059;-52
2023/12/06 09:30:39;;;;;;;6.43;5.13;;;16.20;68.90;;;;;;4204259;28;20055;-49
2023/12/06 09:33:20;;;;;;;5.78;5.32;;;16.20;70.10;;;;;;4178703;28;20052;-52
2023/12/06 09:36:01;;;;;;;6.05;5.40;;;16.10;69.60;;;;;;4177750;28;20056;-54
2023/12/06 09:38:43;;;;;;;6.45;4.70;;;16.10;69.50;;;;;;4188219;28;20055;-52
2023/12/06 09:41:28;;;;;;;5.03;4.53;;;16.10;69.30;;;;;;4187713;28;20060;-53
2023/12/06 09:44:11;;;;;;;5.70;4.93;;;16.10;70.10;;;;;;4185430;28;20047;-50
2023/12/06 09:46:54;;;;;;;4.93;4.53;;;16.00;69.40;;;;;;4186203;28;20186;-48
2023/12/06 09:49:35;;;;;;;5.10;4.63;;;15.90;69.40;;;;;;4175193;28;20043;-49
2023/12/06 09:52:19;;;;;;;;;;;15.80;70.10;;;;;;4189192;28;20051;-51
2023/12/06 09:55:01;;;;;;;5.72;5.22;;;15.70;70.30;;;;;;4187778;28;19976;-48
2023/12/06 09:57:42;;;;;;;6.22;5.25;;;15.70;70.90;;;;;;4188449;28;20178;-49
2023/12/06 10:00:25;;;;;;;5.25;4.75;;;15.60;70.90;;;;;;4162801;28;20098;-50
2023/12/06 10:03:06;;;;;;;7.47;5.07;;;15.60;71.20;;;;;;4179409;28;20048;-48
2023/12/06 10:05:55;;;;;;;6.30;4.82;;;15.60;71.40;;;;;;4188322;28;20055;-54
2023/12/06 10:08:36;;;;;;;6.55;4.57;;;15.70;70.90;;;;;;4188692;28;20109;-53
2023/12/06 10:11:17;;;;;;;5.03;4.63;;;15.70;70.60;;;;;;4202848;28;20062;-56
2023/12/06 10:13:58;;;;;;;5.63;4.43;;;15.70;71.80;;;;;;4191773;28;20084;-57
2023/12/06 10:16:41;;;;;;;5.35;4.53;;;15.70;71.00;;;;;;4202550;28;20059;-55
2023/12/06 10:19:23;;;;;;;7.60;5.22;;;15.70;71.30;;;;;;4202596;28;20058;-56
2023/12/06 10:22:05;;;;;;;4.88;4.45;;;15.70;71.60;;;;;;4202874;28;20403;-59
2023/12/06 10:24:46;;;;;;;4.90;4.47;;;15.70;71.50;;;;;;4201837;28;20083;-48
2023/12/06 10:27:30;;;;;;;5.60;4.78;;;15.70;70.50;;;;;;4185519;28;20050;-57
2023/12/06 10:30:13;;;;;;;5.15;4.57;;;15.80;70.40;;;;;;4200858;28;20051;-60
2023/12/06 10:32:58;;;;;;;6.00;4.65;;;16.00;70.40;;;;;;4201725;28;20067;-57
2023/12/06 10:35:39;;;;;;;6.25;5.68;;;16.10;70.40;;;;;;4201916;28;20098;-54
2023/12/06 10:38:20;;;;;;;;;;;16.10;70.80;;;;;;4200167;28;20058;-52
2023/12/06 10:41:05;;;;;;;4.85;4.45;;;16.20;70.90;;;;;;4201550;28;20263;-54
2023/12/06 10:43:46;;;;;;;5.85;5.25;;;16.20;71.10;;;;;;4196391;28;20407;-55
2023/12/06 10:46:28;;;;;;;5.13;4.63;;;16.20;71.40;;;;;;4202159;28;20117;-48
2023/12/06 10:49:12;;;;;;;4.90;4.50;;;16.20;71.20;;;;;;4200912;28;20055;-47
2023/12/06 10:51:54;;;;;;;6.95;4.53;;;16.30;70.90;;;;;;4200532;28;20090;-56
2023/12/06 10:54:36;;;;;;;6.82;5.45;;;16.30;71.50;;;;;;4200673;28;20520;-53
2023/12/06 10:57:18;;;;;;;5.93;5.30;;;16.40;71.30;;;;;;4201605;28;20055;-49
2023/12/06 11:00:01;;;;;;;5.35;4.60;;;16.40;71.10;;;;;;4183331;28;20063;-50
2023/12/06 11:02:43;;;;;;;6.82;5.53;;;16.40;70.90;;;;;;4200973;28;20059;-53
2023/12/06 11:05:29;;;;;;;6.45;5.47;;;16.40;70.80;;;;;;4182520;28;20062;-53
2023/12/06 11:08:27;;;;;;;6.53;5.93;;;16.50;70.60;;;;;;4201000;28;20189;-55
2023/12/06 11:11:30;;;;;;;6.32;5.72;;;16.50;70.20;;;;;;4200843;28;20102;-53
2023/12/06 11:14:24;;;;;;;5.90;5.30;;;16.50;70.20;;;;;;4200315;28;20092;-55
2023/12/06 11:17:21;;;;;;;5.85;5.03;;;16.40;70.70;;;;;;4202127;28;20062;-51
2023/12/06 11:20:03;;;;;;;6.65;5.32;;;16.40;70.90;;;;;;4200911;28;20055;-47
2023/12/06 11:22:45;;;;;;;;;;;16.30;70.70;;;;;;4204289;28;20055;-48
2023/12/06 11:25:30;;;;;;;5.32;4.85;;;16.30;71.20;;;;;;4205320;28;20373;-52
2023/12/06 11:28:13;;;;;;;5.82;5.30;;;16.30;72.80;;;;;;4177226;28;20435;-52
2023/12/06 11:30:56;;;;;;;5.80;5.25;;;16.20;71.70;;;;;;4205521;28;20054;-51
2023/12/06 11:33:37;;;;;;;9.05;5.57;;;16.30;72.30;;;;;;4203890;28;20051;-51
2023/12/06 11:36:18;;;;;;;7.28;5.68;;;16.30;72.50;;;;;;4205820;28;20098;-49
2023/12/06 11:39:01;;;;;;;7.88;5.50;;;16.40;72.70;;;;;;4205732;28;20158;-51
2023/12/06 11:41:49;;;;;;;5.55;5.05;;;16.50;72.30;;;;;;4206210;28;20055;-51
2023/12/06 11:44:30;;;;;;;5.70;5.20;;;16.50;72.10;;;;;;4203133;28;20047;-50
2023/12/06 11:47:13;;;;;;;5.95;5.45;;;16.60;71.90;;;;;;4205365;28;20073;-51
2023/12/06 11:49:55;;;;;;;5.22;4.72;;;16.80;71.60;;;;;;4204440;28;20181;-51
2023/12/06 11:52:45;;;;;;;;;;;16.80;71.10;;;;;;4204831;28;20055;-52
2023/12/06 11:55:28;;;;;;;6.40;4.93;;;16.90;70.90;;;;;;4205786;28;25471;-48
2023/12/06 11:58:11;;;;;;;5.47;4.90;;;16.80;70.80;;;;;;4205756;28;20079;-49
2023/12/06 12:00:52;;;;;;;6.05;5.45;;;16.80;70.70;;;;;;4197889;28;20063;-49
2023/12/06 12:03:35;;;;;;;6.72;5.30;;;16.70;70.70;;;;;;4171798;28;20051;-49
2023/12/06 12:06:16;;;;;;;5.85;5.35;;;16.60;70.70;;;;;;4173156;28;20400;-53
2023/12/06 12:08:59;;;;;;;5.55;5.05;;;16.60;71.00;;;;;;4188064;28;20055;-51
2023/12/06 12:11:44;;;;;;;6.03;5.40;;;16.50;71.40;;;;;;4200296;28;20056;-50
2023/12/06 12:14:33;;;;;;;7.53;4.85;;;16.60;71.50;;;;;;4204268;28;20628;-49
2023/12/06 12:17:14;;;;;;;5.28;4.70;;;16.60;70.40;;;;;;4205828;28;20062;-48
2023/12/06 12:19:55;;;;;;;6.13;4.90;;;16.60;70.80;;;;;;4205332;28;20063;-50
2023/12/06 12:22:44;;;;;;;5.40;4.90;;;16.60;69.30;;;;;;4203474;28;20047;-49
2023/12/06 12:25:25;;;;;;;4.82;4.43;;;16.50;68.90;;;;;;4203850;28;20055;-48
2023/12/06 12:28:08;;;;;;;5.05;4.65;;;16.50;69.30;;;;;;4204250;28;20047;-58
2023/12/06 12:30:53;;;;;;;7.55;4.57;;;16.40;69.40;;;;;;4204832;28;20058;-59
2023/12/06 12:33:35;;;;;;;4.90;4.55;;;16.30;70.20;;;;;;4202659;28;20621;-59
2023/12/06 12:36:17;;;;;;;5.10;4.60;;;16.30;70.80;;;;;;4175809;28;20551;-52
2023/12/06 12:38:59;;;;;;;4.38;4.05;;;16.20;70.90;;;;;;4172847;28;20052;-58
2023/12/06 12:41:40;;;;;;;7.53;4.28;;;16.20;71.20;;;;;;4186247;28;20185;-50
2023/12/06 12:44:23;;;;;;;4.63;3.83;;;16.20;71.20;;;;;;4199306;28;20112;-60
2023/12/06 12:47:04;;;;;;;5.60;3.97;;;16.20;71.20;;;;;;4199995;28;20058;-59
2023/12/06 12:49:48;;;;;;;5.38;4.18;;;16.20;71.30;;;;;;4199146;28;20092;-61
2023/12/06 12:52:33;;;;;;;4.03;3.72;;;16.30;71.30;;;;;;4199062;28;20043;-59
2023/12/06 12:55:16;;;;;;;4.57;4.18;;;16.30;71.10;;;;;;4197732;28;20059;-53
2023/12/06 12:57:57;;;;;;;3.80;3.50;;;16.30;70.90;;;;;;4200497;28;21009;-57
2023/12/06 13:00:40;;;;;;;3.88;3.55;;;16.30;71.10;;;;;;4200862;28;20129;-55
2023/12/06 13:03:22;;;;;;;5.47;3.95;;;16.30;70.80;;;;;;4197904;28;20059;-55
2023/12/06 13:06:04;;;;;;;4.57;4.18;;;16.30;71.10;;;;;;4187679;28;20552;-55
2023/12/06 13:08:45;;;;;;;5.55;3.92;;;16.30;71.40;;;;;;4200038;28;20174;-55
2023/12/06 13:11:27;;;;;;;4.35;4.00;;;16.40;71.60;;;;;;4200215;28;20058;-53
2023/12/06 13:14:08;;;;;;;3.75;3.45;;;16.40;72.20;;;;;;4200064;28;20054;-54
2023/12/06 13:16:50;;;;;;;4.30;3.90;;;16.40;71.10;;;;;;4184641;28;20435;-55
2023/12/06 13:19:31;;;;;;;3.97;3.58;;;16.40;71.00;;;;;;4203421;28;20063;-52
2023/12/06 13:22:12;;;;;;;6.07;3.53;;;16.50;70.90;;;;;;4203319;28;20210;-52
2023/12/06 13:24:57;;;;;;;4.82;4.13;;;16.60;70.50;;;;;;4202155;28;20051;-53
2023/12/06 13:27:38;;;;;;;4.38;3.28;;;16.70;70.10;;;;;;4196511;28;20047;-52
2023/12/06 13:30:19;;;;;;;4.28;3.35;;;16.70;69.70;;;;;;4202164;28;20074;-54
2023/12/06 13:33:01;;;;;;;3.50;3.20;;;16.70;70.40;;;;;;4202295;28;20096;-54
2023/12/06 13:35:42;;;;;;;4.28;3.15;;;16.70;69.40;;;;;;4203013;28;20426;-54
2023/12/06 13:38:23;;;;;;;3.67;3.38;;;16.60;69.50;;;;;;4201887;28;20094;-52
2023/12/06 13:41:05;;;;;;;5.22;4.00;;;16.60;69.70;;;;;;4200767;28;20035;-53
2023/12/06 13:43:45;;;;;;;;;;;16.50;70.00;;;;;;4186108;28;20120;-54
2023/12/06 13:46:26;;;;;;;3.47;3.10;;;16.40;70.30;;;;;;4202991;28;19935;-55
2023/12/06 13:49:09;;;;;;;3.22;2.92;;;16.40;70.60;;;;;;4201237;28;20674;-55
2023/12/06 13:51:50;;;;;;;4.32;3.13;;;16.30;70.60;;;;;;4185672;28;20533;-55
2023/12/06 13:54:34;;;;;;;3.25;3.00;;;16.40;70.70;;;;;;4201167;28;20071;-55
2023/12/06 13:57:16;;;;;;;3.53;3.05;;;16.30;70.70;;;;;;4202609;28;20059;-55
2023/12/06 13:59:57;;;;;;;4.45;2.70;;;16.30;70.90;;;;;;4200826;28;20067;-47